sensor_id;sensor_type;location;lat;lon;timestamp;P1;durP1;ratioP1;P2;durP2;ratioP2
40322;SDS011;26030;51.164;17.100;2023-07-31T00:04:06;1.50;;;1.20;;
40322;SDS011;26030;51.164;17.100;2023-07-31T00:09:10;1.40;;;1.10;;
40322;SDS011;26030;51.164;17.100;2023-07-31T00:14:22;1.60;;;1.00;;
40322;SDS011;26030;51.164;17.100;2023-07-31T00:19:26;0.90;;;0.90;;
40322;SDS011;26030;51.164;17.100;2023-07-31T00:24:30;0.80;;;0.80;;
40322;SDS011;26030;51.164;17.100;2023-07-31T00:29:34;3.00;;;1.20;;
40322;SDS011;26030;51.164;17.100;2023-07-31T00:34:40;1.10;;;1.00;;
40322;SDS011;26030;51.164;17.100;2023-07-31T00:39:44;2.40;;;1.10;;
40322;SDS011;26030;51.164;17.100;2023-07-31T00:44:49;1.20;;;0.90;;
40322;SDS011;26030;51.164;17.100;2023-07-31T00:49:53;1.20;;;0.90;;
40322;SDS011;26030;51.164;17.100;2023-07-31T00:54:57;1.50;;;1.40;;
40322;SDS011;26030;51.164;17.100;2023-07-31T01:00:02;1.40;;;1.10;;
40322;SDS011;26030;51.164;17.100;2023-07-31T01:05:07;1.40;;;1.30;;
40322;SDS011;26030;51.164;17.100;2023-07-31T01:10:17;1.60;;;1.20;;
40322;SDS011;26030;51.164;17.100;2023-07-31T01:15:24;1.00;;;0.90;;
40322;SDS011;26030;51.164;17.100;2023-07-31T01:20:30;1.20;;;1.20;;
40322;SDS011;26030;51.164;17.100;2023-07-31T01:31:00;2.20;;;1.40;;
40322;SDS011;26030;51.164;17.100;2023-07-31T01:36:07;1.30;;;1.00;;
40322;SDS011;26030;51.164;17.100;2023-07-31T01:41:12;1.10;;;1.00;;
40322;SDS011;26030;51.164;17.100;2023-07-31T01:46:17;1.10;;;1.00;;
40322;SDS011;26030;51.164;17.100;2023-07-31T01:51:21;2.30;;;1.00;;
40322;SDS011;26030;51.164;17.100;2023-07-31T01:56:26;1.20;;;1.10;;
40322;SDS011;26030;51.164;17.100;2023-07-31T02:01:30;1.70;;;1.30;;
40322;SDS011;26030;51.164;17.100;2023-07-31T02:06:36;1.10;;;1.00;;
40322;SDS011;26030;51.164;17.100;2023-07-31T02:11:42;1.30;;;0.90;;
40322;SDS011;26030;51.164;17.100;2023-07-31T02:16:46;1.40;;;1.00;;
40322;SDS011;26030;51.164;17.100;2023-07-31T02:21:51;1.40;;;1.00;;
40322;SDS011;26030;51.164;17.100;2023-07-31T02:26:55;0.90;;;0.90;;
40322;SDS011;26030;51.164;17.100;2023-07-31T02:31:59;1.00;;;0.80;;
40322;SDS011;26030;51.164;17.100;2023-07-31T02:37:04;0.80;;;0.80;;
40322;SDS011;26030;51.164;17.100;2023-07-31T02:42:08;1.30;;;1.20;;
40322;SDS011;26030;51.164;17.100;2023-07-31T02:47:13;1.10;;;1.00;;
40322;SDS011;26030;51.164;17.100;2023-07-31T02:52:17;1.00;;;0.90;;
40322;SDS011;26030;51.164;17.100;2023-07-31T02:57:28;0.70;;;0.70;;
40322;SDS011;26030;51.164;17.100;2023-07-31T03:02:33;1.10;;;1.10;;
40322;SDS011;26030;51.164;17.100;2023-07-31T03:07:37;1.40;;;0.90;;
40322;SDS011;26030;51.164;17.100;2023-07-31T03:12:46;1.00;;;0.90;;
40322;SDS011;26030;51.164;17.100;2023-07-31T03:17:50;1.50;;;0.80;;
40322;SDS011;26030;51.164;17.100;2023-07-31T03:22:54;0.90;;;0.90;;
40322;SDS011;26030;51.164;17.100;2023-07-31T03:27:58;0.50;;;0.50;;
40322;SDS011;26030;51.164;17.100;2023-07-31T03:33:03;0.70;;;0.70;;
40322;SDS011;26030;51.164;17.100;2023-07-31T03:38:07;1.40;;;1.30;;
40322;SDS011;26030;51.164;17.100;2023-07-31T03:43:24;0.80;;;0.80;;
40322;SDS011;26030;51.164;17.100;2023-07-31T03:48:29;1.70;;;1.10;;
40322;SDS011;26030;51.164;17.100;2023-07-31T03:53:33;0.90;;;0.80;;
40322;SDS011;26030;51.164;17.100;2023-07-31T03:58:37;1.20;;;1.00;;
40322;SDS011;26030;51.164;17.100;2023-07-31T04:03:50;1.50;;;0.90;;
40322;SDS011;26030;51.164;17.100;2023-07-31T04:08:54;0.80;;;0.80;;
40322;SDS011;26030;51.164;17.100;2023-07-31T04:14:02;1.40;;;0.90;;
40322;SDS011;26030;51.164;17.100;2023-07-31T04:19:06;0.90;;;0.90;;
40322;SDS011;26030;51.164;17.100;2023-07-31T04:24:10;1.00;;;0.90;;
40322;SDS011;26030;51.164;17.100;2023-07-31T04:29:17;1.00;;;1.00;;
40322;SDS011;26030;51.164;17.100;2023-07-31T04:34:21;0.90;;;0.90;;
40322;SDS011;26030;51.164;17.100;2023-07-31T04:39:26;0.80;;;0.80;;
40322;SDS011;26030;51.164;17.100;2023-07-31T04:44:30;1.10;;;0.90;;
40322;SDS011;26030;51.164;17.100;2023-07-31T04:49:34;1.40;;;1.10;;
40322;SDS011;26030;51.164;17.100;2023-07-31T04:54:38;1.30;;;1.20;;
40322;SDS011;26030;51.164;17.100;2023-07-31T04:59:43;2.80;;;0.80;;
40322;SDS011;26030;51.164;17.100;2023-07-31T05:04:47;1.20;;;1.00;;
40322;SDS011;26030;51.164;17.100;2023-07-31T05:09:51;0.90;;;0.90;;
40322;SDS011;26030;51.164;17.100;2023-07-31T05:14:55;1.90;;;0.80;;
40322;SDS011;26030;51.164;17.100;2023-07-31T05:20:00;0.90;;;0.90;;
40322;SDS011;26030;51.164;17.100;2023-07-31T05:25:05;1.20;;;1.10;;
40322;SDS011;26030;51.164;17.100;2023-07-31T05:30:09;1.30;;;1.20;;
40322;SDS011;26030;51.164;17.100;2023-07-31T05:35:13;1.20;;;1.10;;
40322;SDS011;26030;51.164;17.100;2023-07-31T05:40:18;1.00;;;0.90;;
40322;SDS011;26030;51.164;17.100;2023-07-31T05:45:22;1.30;;;1.00;;
40322;SDS011;26030;51.164;17.100;2023-07-31T05:50:30;1.30;;;1.20;;
40322;SDS011;26030;51.164;17.100;2023-07-31T05:55:34;3.30;;;1.40;;
40322;SDS011;26030;51.164;17.100;2023-07-31T06:00:38;1.30;;;1.20;;
40322;SDS011;26030;51.164;17.100;2023-07-31T06:05:42;1.20;;;1.10;;
40322;SDS011;26030;51.164;17.100;2023-07-31T06:10:46;1.20;;;1.00;;
40322;SDS011;26030;51.164;17.100;2023-07-31T06:15:50;1.20;;;1.20;;
40322;SDS011;26030;51.164;17.100;2023-07-31T06:20:54;1.20;;;1.10;;
40322;SDS011;26030;51.164;17.100;2023-07-31T06:25:59;2.10;;;1.10;;
40322;SDS011;26030;51.164;17.100;2023-07-31T06:31:04;2.10;;;1.30;;
40322;SDS011;26030;51.164;17.100;2023-07-31T06:36:08;1.70;;;1.10;;
40322;SDS011;26030;51.164;17.100;2023-07-31T06:41:13;1.30;;;1.20;;
40322;SDS011;26030;51.164;17.100;2023-07-31T06:46:17;1.30;;;1.20;;
40322;SDS011;26030;51.164;17.100;2023-07-31T06:51:21;1.30;;;1.20;;
40322;SDS011;26030;51.164;17.100;2023-07-31T06:56:25;1.20;;;1.10;;
40322;SDS011;26030;51.164;17.100;2023-07-31T07:01:30;1.40;;;1.30;;
40322;SDS011;26030;51.164;17.100;2023-07-31T07:06:34;2.10;;;1.50;;
40322;SDS011;26030;51.164;17.100;2023-07-31T07:11:39;1.50;;;1.40;;
40322;SDS011;26030;51.164;17.100;2023-07-31T07:16:43;2.70;;;1.40;;
40322;SDS011;26030;51.164;17.100;2023-07-31T07:21:47;1.40;;;1.30;;
40322;SDS011;26030;51.164;17.100;2023-07-31T07:26:51;1.60;;;1.40;;
40322;SDS011;26030;51.164;17.100;2023-07-31T07:31:55;1.60;;;1.50;;
40322;SDS011;26030;51.164;17.100;2023-07-31T07:37:00;1.40;;;1.30;;
40322;SDS011;26030;51.164;17.100;2023-07-31T07:42:04;1.60;;;1.50;;
40322;SDS011;26030;51.164;17.100;2023-07-31T07:47:08;2.20;;;1.30;;
40322;SDS011;26030;51.164;17.100;2023-07-31T07:52:13;2.10;;;1.60;;
40322;SDS011;26030;51.164;17.100;2023-07-31T07:57:17;5.50;;;2.10;;
40322;SDS011;26030;51.164;17.100;2023-07-31T08:02:22;11.10;;;1.90;;
40322;SDS011;26030;51.164;17.100;2023-07-31T08:07:26;2.10;;;1.60;;
40322;SDS011;26030;51.164;17.100;2023-07-31T08:12:30;2.40;;;1.20;;
40322;SDS011;26030;51.164;17.100;2023-07-31T08:17:34;1.70;;;1.60;;
40322;SDS011;26030;51.164;17.100;2023-07-31T08:22:38;3.00;;;1.70;;
40322;SDS011;26030;51.164;17.100;2023-07-31T08:27:43;2.00;;;1.30;;
40322;SDS011;26030;51.164;17.100;2023-07-31T08:32:47;4.70;;;1.50;;
40322;SDS011;26030;51.164;17.100;2023-07-31T08:37:52;1.80;;;1.30;;
40322;SDS011;26030;51.164;17.100;2023-07-31T08:42:56;4.10;;;1.70;;
40322;SDS011;26030;51.164;17.100;2023-07-31T08:48:03;2.20;;;1.50;;
40322;SDS011;26030;51.164;17.100;2023-07-31T08:53:07;3.20;;;1.80;;
40322;SDS011;26030;51.164;17.100;2023-07-31T08:58:12;1.70;;;1.40;;
40322;SDS011;26030;51.164;17.100;2023-07-31T09:03:18;2.90;;;1.50;;
40322;SDS011;26030;51.164;17.100;2023-07-31T09:08:24;2.10;;;1.60;;
40322;SDS011;26030;51.164;17.100;2023-07-31T09:13:31;3.70;;;1.40;;
40322;SDS011;26030;51.164;17.100;2023-07-31T09:18:53;2.90;;;1.20;;
40322;SDS011;26030;51.164;17.100;2023-07-31T09:23:58;2.20;;;1.40;;
40322;SDS011;26030;51.164;17.100;2023-07-31T09:29:18;1.70;;;1.50;;
40322;SDS011;26030;51.164;17.100;2023-07-31T09:34:36;2.50;;;1.90;;
40322;SDS011;26030;51.164;17.100;2023-07-31T09:39:47;2.70;;;1.30;;
40322;SDS011;26030;51.164;17.100;2023-07-31T09:44:51;1.50;;;1.40;;
40322;SDS011;26030;51.164;17.100;2023-07-31T09:49:55;3.30;;;1.90;;
40322;SDS011;26030;51.164;17.100;2023-07-31T09:54:59;1.80;;;1.20;;
40322;SDS011;26030;51.164;17.100;2023-07-31T10:00:06;2.10;;;1.60;;
40322;SDS011;26030;51.164;17.100;2023-07-31T10:05:19;3.60;;;1.60;;
40322;SDS011;26030;51.164;17.100;2023-07-31T10:10:25;2.20;;;1.70;;
40322;SDS011;26030;51.164;17.100;2023-07-31T10:15:30;5.30;;;2.00;;
40322;SDS011;26030;51.164;17.100;2023-07-31T10:20:36;2.90;;;1.60;;
40322;SDS011;26030;51.164;17.100;2023-07-31T10:25:40;4.10;;;1.90;;
40322;SDS011;26030;51.164;17.100;2023-07-31T10:30:45;3.90;;;1.60;;
40322;SDS011;26030;51.164;17.100;2023-07-31T10:35:50;2.30;;;1.50;;
40322;SDS011;26030;51.164;17.100;2023-07-31T10:41:08;2.10;;;1.70;;
40322;SDS011;26030;51.164;17.100;2023-07-31T10:46:14;1.70;;;1.40;;
40322;SDS011;26030;51.164;17.100;2023-07-31T10:51:20;2.20;;;1.50;;
40322;SDS011;26030;51.164;17.100;2023-07-31T10:56:26;2.30;;;1.40;;
40322;SDS011;26030;51.164;17.100;2023-07-31T11:01:57;4.20;;;1.40;;
40322;SDS011;26030;51.164;17.100;2023-07-31T11:07:02;2.00;;;1.60;;
40322;SDS011;26030;51.164;17.100;2023-07-31T11:12:10;4.50;;;1.40;;
40322;SDS011;26030;51.164;17.100;2023-07-31T11:17:15;2.60;;;1.60;;
40322;SDS011;26030;51.164;17.100;2023-07-31T11:22:30;3.40;;;1.40;;
40322;SDS011;26030;51.164;17.100;2023-07-31T11:27:39;2.40;;;1.30;;
40322;SDS011;26030;51.164;17.100;2023-07-31T11:32:44;2.40;;;1.40;;
40322;SDS011;26030;51.164;17.100;2023-07-31T11:37:59;1.50;;;1.40;;
40322;SDS011;26030;51.164;17.100;2023-07-31T11:43:04;1.60;;;1.50;;
40322;SDS011;26030;51.164;17.100;2023-07-31T11:48:09;1.60;;;1.30;;
40322;SDS011;26030;51.164;17.100;2023-07-31T11:53:13;2.30;;;1.30;;
40322;SDS011;26030;51.164;17.100;2023-07-31T11:58:19;1.70;;;1.60;;
40322;SDS011;26030;51.164;17.100;2023-07-31T12:03:24;3.80;;;1.70;;
40322;SDS011;26030;51.164;17.100;2023-07-31T12:08:29;1.60;;;1.50;;
40322;SDS011;26030;51.164;17.100;2023-07-31T12:13:33;1.90;;;1.80;;
40322;SDS011;26030;51.164;17.100;2023-07-31T12:18:39;7.50;;;2.40;;
40322;SDS011;26030;51.164;17.100;2023-07-31T12:23:44;5.00;;;2.10;;
40322;SDS011;26030;51.164;17.100;2023-07-31T12:28:50;3.50;;;3.00;;
40322;SDS011;26030;51.164;17.100;2023-07-31T12:33:55;3.50;;;2.60;;
40322;SDS011;26030;51.164;17.100;2023-07-31T12:38:59;2.30;;;2.10;;
40322;SDS011;26030;51.164;17.100;2023-07-31T12:44:04;2.10;;;2.00;;
40322;SDS011;26030;51.164;17.100;2023-07-31T12:49:08;2.20;;;2.00;;
40322;SDS011;26030;51.164;17.100;2023-07-31T12:54:13;2.20;;;1.90;;
40322;SDS011;26030;51.164;17.100;2023-07-31T12:59:17;2.60;;;1.80;;
40322;SDS011;26030;51.164;17.100;2023-07-31T13:04:21;3.70;;;1.90;;
40322;SDS011;26030;51.164;17.100;2023-07-31T13:09:25;1.90;;;1.80;;
40322;SDS011;26030;51.164;17.100;2023-07-31T13:14:31;2.90;;;1.90;;
40322;SDS011;26030;51.164;17.100;2023-07-31T13:19:35;3.00;;;1.60;;
40322;SDS011;26030;51.164;17.100;2023-07-31T13:24:39;1.90;;;1.70;;
40322;SDS011;26030;51.164;17.100;2023-07-31T13:29:44;2.70;;;2.50;;
40322;SDS011;26030;51.164;17.100;2023-07-31T13:34:49;2.40;;;1.80;;
40322;SDS011;26030;51.164;17.100;2023-07-31T13:39:53;2.70;;;2.00;;
40322;SDS011;26030;51.164;17.100;2023-07-31T13:44:59;4.30;;;2.30;;
40322;SDS011;26030;51.164;17.100;2023-07-31T13:50:03;246.30;;;221.40;;
40322;SDS011;26030;51.164;17.100;2023-07-31T13:55:07;130.90;;;117.60;;
40322;SDS011;26030;51.164;17.100;2023-07-31T14:00:12;75.10;;;67.60;;
40322;SDS011;26030;51.164;17.100;2023-07-31T14:05:16;57.30;;;51.40;;
40322;SDS011;26030;51.164;17.100;2023-07-31T14:10:21;56.00;;;50.20;;
40322;SDS011;26030;51.164;17.100;2023-07-31T14:15:25;48.80;;;43.90;;
40322;SDS011;26030;51.164;17.100;2023-07-31T14:20:30;47.60;;;42.70;;
40322;SDS011;26030;51.164;17.100;2023-07-31T14:25:34;45.30;;;40.80;;
40322;SDS011;26030;51.164;17.100;2023-07-31T14:30:38;38.00;;;34.40;;
40322;SDS011;26030;51.164;17.100;2023-07-31T14:35:42;40.60;;;36.50;;
40322;SDS011;26030;51.164;17.100;2023-07-31T14:40:47;37.30;;;33.70;;
40322;SDS011;26030;51.164;17.100;2023-07-31T14:45:51;34.00;;;30.30;;
40322;SDS011;26030;51.164;17.100;2023-07-31T14:50:57;31.80;;;28.70;;
40322;SDS011;26030;51.164;17.100;2023-07-31T14:56:02;28.10;;;25.40;;
40322;SDS011;26030;51.164;17.100;2023-07-31T15:01:07;27.20;;;24.70;;
40322;SDS011;26030;51.164;17.100;2023-07-31T15:06:11;25.00;;;22.50;;
40322;SDS011;26030;51.164;17.100;2023-07-31T15:11:16;23.00;;;20.80;;
40322;SDS011;26030;51.164;17.100;2023-07-31T15:16:22;21.90;;;19.70;;
40322;SDS011;26030;51.164;17.100;2023-07-31T15:21:26;21.50;;;19.30;;
40322;SDS011;26030;51.164;17.100;2023-07-31T15:26:39;22.20;;;19.80;;
40322;SDS011;26030;51.164;17.100;2023-07-31T15:31:48;18.80;;;17.20;;
40322;SDS011;26030;51.164;17.100;2023-07-31T15:36:52;19.60;;;17.70;;
40322;SDS011;26030;51.164;17.100;2023-07-31T15:41:57;15.00;;;13.60;;
40322;SDS011;26030;51.164;17.100;2023-07-31T15:47:02;16.30;;;14.60;;
40322;SDS011;26030;51.164;17.100;2023-07-31T15:52:06;13.90;;;12.60;;
40322;SDS011;26030;51.164;17.100;2023-07-31T15:57:11;14.70;;;13.20;;
40322;SDS011;26030;51.164;17.100;2023-07-31T16:02:15;12.80;;;11.70;;
40322;SDS011;26030;51.164;17.100;2023-07-31T16:07:19;10.80;;;9.90;;
40322;SDS011;26030;51.164;17.100;2023-07-31T16:12:26;10.40;;;9.40;;
40322;SDS011;26030;51.164;17.100;2023-07-31T16:17:30;9.40;;;8.60;;
40322;SDS011;26030;51.164;17.100;2023-07-31T16:22:34;8.90;;;7.60;;
40322;SDS011;26030;51.164;17.100;2023-07-31T16:27:40;11.70;;;9.10;;
40322;SDS011;26030;51.164;17.100;2023-07-31T16:32:44;15.90;;;9.70;;
40322;SDS011;26030;51.164;17.100;2023-07-31T16:37:50;14.20;;;8.20;;
40322;SDS011;26030;51.164;17.100;2023-07-31T16:42:55;10.40;;;8.10;;
40322;SDS011;26030;51.164;17.100;2023-07-31T16:48:00;9.90;;;7.20;;
40322;SDS011;26030;51.164;17.100;2023-07-31T16:53:05;9.70;;;6.90;;
40322;SDS011;26030;51.164;17.100;2023-07-31T16:58:09;8.00;;;5.60;;
40322;SDS011;26030;51.164;17.100;2023-07-31T17:03:13;8.80;;;6.20;;
40322;SDS011;26030;51.164;17.100;2023-07-31T17:08:18;7.60;;;5.50;;
40322;SDS011;26030;51.164;17.100;2023-07-31T17:13:22;5.30;;;4.80;;
40322;SDS011;26030;51.164;17.100;2023-07-31T17:18:26;5.60;;;5.00;;
40322;SDS011;26030;51.164;17.100;2023-07-31T17:23:31;5.40;;;4.90;;
40322;SDS011;26030;51.164;17.100;2023-07-31T17:28:35;5.80;;;4.70;;
40322;SDS011;26030;51.164;17.100;2023-07-31T17:33:40;4.70;;;4.30;;
40322;SDS011;26030;51.164;17.100;2023-07-31T17:38:44;6.20;;;4.50;;
40322;SDS011;26030;51.164;17.100;2023-07-31T17:43:49;5.70;;;4.50;;
40322;SDS011;26030;51.164;17.100;2023-07-31T17:48:54;4.00;;;3.60;;
40322;SDS011;26030;51.164;17.100;2023-07-31T17:53:59;4.10;;;3.70;;
40322;SDS011;26030;51.164;17.100;2023-07-31T17:59:05;3.90;;;3.60;;
40322;SDS011;26030;51.164;17.100;2023-07-31T18:04:10;3.70;;;3.30;;
40322;SDS011;26030;51.164;17.100;2023-07-31T18:09:15;3.80;;;3.40;;
40322;SDS011;26030;51.164;17.100;2023-07-31T18:14:19;7.50;;;3.70;;
40322;SDS011;26030;51.164;17.100;2023-07-31T18:19:30;4.00;;;3.60;;
40322;SDS011;26030;51.164;17.100;2023-07-31T18:24:36;3.20;;;2.90;;
40322;SDS011;26030;51.164;17.100;2023-07-31T18:29:42;4.50;;;2.90;;
40322;SDS011;26030;51.164;17.100;2023-07-31T18:34:47;3.40;;;3.10;;
40322;SDS011;26030;51.164;17.100;2023-07-31T18:39:52;2.80;;;2.60;;
40322;SDS011;26030;51.164;17.100;2023-07-31T18:44:57;5.50;;;3.20;;
40322;SDS011;26030;51.164;17.100;2023-07-31T18:50:01;2.70;;;2.50;;
40322;SDS011;26030;51.164;17.100;2023-07-31T18:55:07;2.70;;;2.50;;
40322;SDS011;26030;51.164;17.100;2023-07-31T19:00:12;3.30;;;3.00;;
40322;SDS011;26030;51.164;17.100;2023-07-31T19:05:16;2.90;;;2.50;;
40322;SDS011;26030;51.164;17.100;2023-07-31T19:10:22;3.50;;;2.80;;
40322;SDS011;26030;51.164;17.100;2023-07-31T19:15:27;2.70;;;2.50;;
40322;SDS011;26030;51.164;17.100;2023-07-31T19:20:32;3.80;;;2.70;;
40322;SDS011;26030;51.164;17.100;2023-07-31T19:25:36;4.70;;;3.00;;
40322;SDS011;26030;51.164;17.100;2023-07-31T19:30:42;3.10;;;2.30;;
40322;SDS011;26030;51.164;17.100;2023-07-31T19:35:57;2.70;;;2.50;;
40322;SDS011;26030;51.164;17.100;2023-07-31T19:41:02;4.20;;;2.50;;
40322;SDS011;26030;51.164;17.100;2023-07-31T19:46:07;2.80;;;2.50;;
40322;SDS011;26030;51.164;17.100;2023-07-31T19:51:12;3.80;;;2.70;;
40322;SDS011;26030;51.164;17.100;2023-07-31T19:56:17;2.70;;;2.50;;
40322;SDS011;26030;51.164;17.100;2023-07-31T20:01:22;2.60;;;2.40;;
40322;SDS011;26030;51.164;17.100;2023-07-31T20:06:29;4.50;;;2.50;;
40322;SDS011;26030;51.164;17.100;2023-07-31T20:11:33;2.90;;;2.60;;
40322;SDS011;26030;51.164;17.100;2023-07-31T20:16:38;5.20;;;2.60;;
40322;SDS011;26030;51.164;17.100;2023-07-31T20:21:45;2.90;;;2.60;;
40322;SDS011;26030;51.164;17.100;2023-07-31T20:26:50;2.80;;;2.60;;
40322;SDS011;26030;51.164;17.100;2023-07-31T20:31:55;3.10;;;2.50;;
40322;SDS011;26030;51.164;17.100;2023-07-31T20:37:01;3.00;;;2.80;;
40322;SDS011;26030;51.164;17.100;2023-07-31T20:42:06;9.30;;;2.90;;
40322;SDS011;26030;51.164;17.100;2023-07-31T20:47:11;5.30;;;2.60;;
40322;SDS011;26030;51.164;17.100;2023-07-31T20:52:15;14.90;;;3.60;;
40322;SDS011;26030;51.164;17.100;2023-07-31T20:57:20;14.10;;;2.90;;
40322;SDS011;26030;51.164;17.100;2023-07-31T21:02:24;8.20;;;3.00;;
40322;SDS011;26030;51.164;17.100;2023-07-31T21:07:29;8.60;;;2.70;;
40322;SDS011;26030;51.164;17.100;2023-07-31T21:12:34;5.30;;;2.80;;
40322;SDS011;26030;51.164;17.100;2023-07-31T21:17:41;4.50;;;2.60;;
40322;SDS011;26030;51.164;17.100;2023-07-31T21:22:45;5.40;;;2.90;;
40322;SDS011;26030;51.164;17.100;2023-07-31T21:27:49;5.40;;;2.60;;
40322;SDS011;26030;51.164;17.100;2023-07-31T21:32:53;4.90;;;2.80;;
40322;SDS011;26030;51.164;17.100;2023-07-31T21:37:58;7.20;;;2.90;;
40322;SDS011;26030;51.164;17.100;2023-07-31T21:43:02;8.30;;;3.50;;
40322;SDS011;26030;51.164;17.100;2023-07-31T21:48:06;3.40;;;2.80;;
40322;SDS011;26030;51.164;17.100;2023-07-31T21:53:11;3.90;;;2.60;;
40322;SDS011;26030;51.164;17.100;2023-07-31T21:58:15;10.40;;;3.60;;
40322;SDS011;26030;51.164;17.100;2023-07-31T22:03:19;3.80;;;2.80;;
40322;SDS011;26030;51.164;17.100;2023-07-31T22:08:24;4.20;;;2.70;;
40322;SDS011;26030;51.164;17.100;2023-07-31T22:13:28;4.20;;;2.70;;
40322;SDS011;26030;51.164;17.100;2023-07-31T22:18:33;3.10;;;2.50;;
40322;SDS011;26030;51.164;17.100;2023-07-31T22:23:37;6.70;;;2.90;;
40322;SDS011;26030;51.164;17.100;2023-07-31T22:28:41;4.50;;;2.30;;
40322;SDS011;26030;51.164;17.100;2023-07-31T22:33:46;3.90;;;2.80;;
40322;SDS011;26030;51.164;17.100;2023-07-31T22:38:50;7.40;;;3.10;;
40322;SDS011;26030;51.164;17.100;2023-07-31T22:43:54;2.90;;;2.40;;
40322;SDS011;26030;51.164;17.100;2023-07-31T22:48:58;4.40;;;3.00;;
40322;SDS011;26030;51.164;17.100;2023-07-31T22:54:03;2.80;;;2.50;;
40322;SDS011;26030;51.164;17.100;2023-07-31T22:59:07;3.40;;;2.90;;
40322;SDS011;26030;51.164;17.100;2023-07-31T23:04:11;2.90;;;2.50;;
40322;SDS011;26030;51.164;17.100;2023-07-31T23:09:16;6.50;;;3.70;;
40322;SDS011;26030;51.164;17.100;2023-07-31T23:14:20;3.70;;;3.10;;
40322;SDS011;26030;51.164;17.100;2023-07-31T23:19:24;3.00;;;2.20;;
40322;SDS011;26030;51.164;17.100;2023-07-31T23:24:29;6.10;;;2.50;;
40322;SDS011;26030;51.164;17.100;2023-07-31T23:29:33;3.40;;;2.40;;
40322;SDS011;26030;51.164;17.100;2023-07-31T23:34:39;5.30;;;2.50;;
40322;SDS011;26030;51.164;17.100;2023-07-31T23:39:44;3.00;;;2.70;;
40322;SDS011;26030;51.164;17.100;2023-07-31T23:44:51;2.70;;;2.40;;
40322;SDS011;26030;51.164;17.100;2023-07-31T23:50:12;3.00;;;2.70;;
40322;SDS011;26030;51.164;17.100;2023-07-31T23:55:17;3.40;;;2.30;;
